CheckWX is a tool to help pilots better visualize weather data.  It is not intended as a substitute for an official pre-flight weather briefing.

03:39:13 UTC

KORS METAR
Orcas Island Airport
Eastsound, Washington, USA
Current

24 mins ago

KORS 260315Z AUTO 00000KT 10SM OVC050 12/10 A2991 RMK AO2
Observed
May-26 @ 03:15 UTC
Visibility
10 SM
Flight Rules
VFR
Cloud Levels
  • Overcast at 5,000' AGL
Temperature
12°C / 54°F
Dewpoint
10°C / 50°F
Humidity
88%
Altimeter
29.91" Hg
Pressure
1012.92 hPa
Previous

44 mins ago

KORS 260255Z AUTO 00000KT 10SM OVC050 12/10 A2991 RMK AO2
Observed
May-26 @ 02:55 UTC
Visibility
10 SM
Flight Rules
VFR
Cloud Levels
  • Overcast at 5,000' AGL
Temperature
12°C / 54°F
Dewpoint
10°C / 50°F
Humidity
88%
Altimeter
29.91" Hg
Pressure
1012.92 hPa
Previous

1 hour ago

KORS 260235Z AUTO 00000KT 9SM FEW024 BKN048 OVC055 12/10 A2990 RMK AO2
Observed
May-26 @ 02:35 UTC
Visibility
9 SM
Flight Rules
VFR
Cloud Levels
  • Few at 2,400' AGL
  • Broken at 4,800' AGL
  • Overcast at 5,500' AGL
Temperature
12°C / 54°F
Dewpoint
10°C / 50°F
Humidity
88%
Altimeter
29.9" Hg
Pressure
1012.52 hPa